createdAt,value
2022-11-16T00:05:01.254Z,46.38
2022-11-16T00:15:24.009Z,48.83
2022-11-16T00:25:45.594Z,47.50
2022-11-16T00:36:11.805Z,51.92
2022-11-16T00:46:33.352Z,56.13
2022-11-16T00:56:57.610Z,42.13
2022-11-16T01:07:21.009Z,39.17
2022-11-16T01:17:44.701Z,41.75
2022-11-16T01:28:06.311Z,29.77
2022-11-16T01:38:38.844Z,34.47
2022-11-16T01:49:05.010Z,44.95
2022-11-16T01:59:29.280Z,30.43
2022-11-16T02:10:06.378Z,48.20
2022-11-16T02:21:04.108Z,40.38
2022-11-16T02:31:33.605Z,35.65
2022-11-16T02:41:58.196Z,37.90
2022-11-16T02:52:24.057Z,28.42
2022-11-16T03:02:54.636Z,42.90
2022-11-16T03:13:20.750Z,48.38
2022-11-16T03:23:44.157Z,42.63
2022-11-16T03:34:13.604Z,38.35
2022-11-16T03:44:36.925Z,57.22
2022-11-16T03:55:02.296Z,52.38
2022-11-16T04:05:42.161Z,58.25
2022-11-16T04:16:25.106Z,63.63
2022-11-16T04:27:06.739Z,54.25
2022-11-16T04:37:47.045Z,64.88
2022-11-16T04:48:10.930Z,50.17
2022-11-16T04:58:35.602Z,49.30
2022-11-16T05:08:58.290Z,44.85
2022-11-16T05:19:39.103Z,76.55
2022-11-16T05:30:01.238Z,50.58
2022-11-16T05:40:25.609Z,55.78
2022-11-16T05:50:59.227Z,40.17
2022-11-16T06:01:23.600Z,42.05
2022-11-16T06:11:45.648Z,65.10
2022-11-16T06:22:12.242Z,50.88
2022-11-16T06:32:36.097Z,47.45
2022-11-16T06:43:02.585Z,55.20
2022-11-16T06:53:29.020Z,57.25
2022-11-16T07:03:55.774Z,53.63
2022-11-16T07:14:17.677Z,51.25
2022-11-16T07:24:41.116Z,48.92
2022-11-16T07:35:05.087Z,56.95
2022-11-16T07:45:28.226Z,60.47
2022-11-16T07:55:57.031Z,54.60
2022-11-16T08:06:27.365Z,53.33
2022-11-16T08:16:50.699Z,48.85
2022-11-16T08:27:17.453Z,57.28
2022-11-16T08:37:42.683Z,48.45
2022-11-16T08:48:07.494Z,39.45
2022-11-16T08:58:33.931Z,46.55
2022-11-16T09:08:58.230Z,41.90
2022-11-16T09:19:21.614Z,35.80
2022-11-16T09:29:44.454Z,44.80
2022-11-16T09:40:06.892Z,27.58
2022-11-16T09:50:45.445Z,26.95
2022-11-16T10:11:56.323Z,20.45
2022-11-16T10:22:32.951Z,20.67
2022-11-16T10:33:00.372Z,21.65
2022-11-16T10:43:25.382Z,30.02
2022-11-16T10:53:49.505Z,20.60
2022-11-16T11:04:17.466Z,23.70
2022-11-16T11:15:39.968Z,22.33
2022-11-16T11:26:03.618Z,25.80
2022-11-16T11:36:29.514Z,22.08
2022-11-16T11:57:43.827Z,23.73
2022-11-16T12:08:18.509Z,24.88
2022-11-16T12:19:04.233Z,27.77
2022-11-16T12:30:20.815Z,21.90
2022-11-16T12:41:00.967Z,28.90
2022-11-16T12:51:42.539Z,25.25
2022-11-16T13:03:04.300Z,24.85
2022-11-16T13:13:49.622Z,24.08
2022-11-16T13:24:42.429Z,25.85
2022-11-16T13:35:17.006Z,23.42
2022-11-16T13:45:44.369Z,21.90
2022-11-16T13:56:16.707Z,22.42
2022-11-16T14:07:08.314Z,20.15
2022-11-16T14:18:37.063Z,20.10
2022-11-16T14:29:31.670Z,19.77
2022-11-16T14:40:10.573Z,17.65
2022-11-16T14:50:40.807Z,21.00
2022-11-16T15:01:30.352Z,20.50
2022-11-16T15:12:34.031Z,18.13
2022-11-16T15:23:31.426Z,17.35
2022-11-16T15:57:21.848Z,18.55
2022-11-16T16:07:51.932Z,18.40
2022-11-16T16:18:43.406Z,16.83
2022-11-16T16:29:21.371Z,16.80
2022-11-16T16:39:45.880Z,14.18
2022-11-16T16:50:11.994Z,19.58
2022-11-16T17:00:39.957Z,16.67
2022-11-16T17:22:28.192Z,14.00
2022-11-16T17:32:52.477Z,22.45
2022-11-16T17:43:18.644Z,15.07
2022-11-16T17:53:44.147Z,13.23
2022-11-16T18:15:42.572Z,9.25
2022-11-16T18:26:12.453Z,10.52
2022-11-16T18:36:44.261Z,12.38
2022-11-16T18:47:06.351Z,11.95
2022-11-16T18:58:23.092Z,16.42
2022-11-16T19:09:00.730Z,14.20
2022-11-16T19:20:12.549Z,11.77
2022-11-16T19:30:38.660Z,14.15
2022-11-16T19:41:46.856Z,13.97
2022-11-16T19:52:37.621Z,16.88
2022-11-16T20:26:33.448Z,13.65
2022-11-16T20:36:58.187Z,12.27
2022-11-16T20:47:23.173Z,11.85
2022-11-16T20:57:44.460Z,10.95
2022-11-16T21:08:07.666Z,11.15
2022-11-16T21:18:30.941Z,10.55
2022-11-16T21:29:09.687Z,11.73
2022-11-16T21:39:35.117Z,9.75
2022-11-16T21:50:29.974Z,11.07
2022-11-16T22:00:41.162Z,9.57
2022-11-16T22:11:04.280Z,11.15
2022-11-16T22:21:32.659Z,9.48
2022-11-16T22:32:18.928Z,10.05
2022-11-16T22:43:09.815Z,12.05
2022-11-16T22:53:37.340Z,13.07
2022-11-16T23:04:01.899Z,10.02
2022-11-16T23:14:47.172Z,9.40
2022-11-16T23:25:31.904Z,14.32
2022-11-16T23:36:03.720Z,10.95
2022-11-16T23:46:30.297Z,12.02
2022-11-16T23:56:56.623Z,11.43
